Time;durP1;ratioP1;P1;durP2;ratioP2;P2;SDS_P1;SDS_P2;PMS_P1;PMS_P2;Temp;Humidity;BMP_temperature;BMP_pressure;BME280_temperature;BME280_humidity;BME280_pressure;Samples;Min_cycle;Max_cycle;Signal;HPM_P1;HPM_P2
2022/01/13 00:00:19;;;;;;;26.50;16.60;;;5.80;1.00;;;;;;5064956;28;20467;-58
2022/01/13 00:02:46;;;;;;;31.53;17.80;;;5.70;1.00;;;;;;5063208;28;21095;-59
2022/01/13 00:05:12;;;;;;;29.30;17.37;;;5.70;1.00;;;;;;5063516;28;20445;-59
2022/01/13 00:07:38;;;;;;;29.40;17.27;;;;;;;;;;5065402;28;20448;-58
2022/01/13 00:10:04;;;;;;;31.83;18.00;;;5.80;1.00;;;;;;5077199;28;20442;-58
2022/01/13 00:12:36;;;;;;;29.67;17.20;;;5.80;1.00;;;;;;5044672;28;20472;-59
2022/01/13 00:15:25;;;;;;;29.80;17.40;;;;;;;;;;5065820;28;20457;-57
2022/01/13 00:18:03;;;;;;;35.87;18.63;;;;;;;;;;5061732;28;20434;-57
2022/01/13 00:20:37;;;;;;;27.63;16.80;;;;;;;;;;5063893;28;20466;-58
2022/01/13 00:25:53;;;;;;;35.53;18.50;;;;;;;;;;5072885;28;20503;-58
2022/01/13 00:28:21;;;;;;;36.30;16.70;;;5.80;1.00;;;;;;5070125;28;20449;-59
2022/01/13 00:30:51;;;;;;;29.93;18.00;;;;;;;;;;5070461;28;20423;-58
2022/01/13 00:33:23;;;;;;;26.60;16.97;;;5.90;1.00;;;;;;5072132;28;20607;-58
2022/01/13 00:35:48;;;;;;;30.30;17.93;;;5.90;1.00;;;;;;5071918;28;20572;-57
2022/01/13 00:38:14;;;;;;;32.10;16.43;;;5.90;1.00;;;;;;5063967;28;20442;-59
2022/01/13 00:40:39;;;;;;;31.50;17.83;;;6.00;1.00;;;;;;5063932;28;21957;-59
2022/01/13 00:43:05;;;;;;;27.93;18.30;;;6.10;1.00;;;;;;5064707;28;20178;-57
2022/01/13 00:45:30;;;;;;;27.43;18.13;;;6.00;1.00;;;;;;5065423;28;20193;-59
2022/01/13 00:47:56;;;;;;;27.07;17.97;;;;;;;;;;5063827;28;20687;-58
2022/01/13 00:50:22;;;;;;;27.70;17.57;;;6.00;1.00;;;;;;5064425;28;20245;-59
2022/01/13 00:52:48;;;;;;;20.00;14.63;;;6.00;1.00;;;;;;5068039;28;20456;-57
2022/01/13 00:55:20;;;;;;;26.60;16.20;;;6.00;1.00;;;;;;5071347;28;20197;-57
2022/01/13 00:57:46;;;;;;;20.17;14.40;;;;;;;;;;5070732;28;20234;-58
2022/01/13 01:00:12;;;;;;;21.27;14.43;;;6.00;1.00;;;;;;5062540;28;20474;-58
2022/01/13 01:02:37;;;;;;;17.77;12.60;;;6.00;1.00;;;;;;5066151;28;20452;-58
2022/01/13 01:05:03;;;;;;;15.13;11.50;;;6.00;1.00;;;;;;5075461;28;20442;-57
2022/01/13 01:07:29;;;;;;;13.03;10.10;;;5.80;1.00;;;;;;5062132;28;20193;-59
2022/01/13 01:09:58;;;;;;;14.20;9.63;;;5.60;1.00;;;;;;5060878;28;20662;-58
2022/01/13 01:12:23;;;;;;;10.90;8.57;;;5.40;1.00;;;;;;5061646;28;20710;-58
2022/01/13 01:14:55;;;;;;;16.70;9.30;;;;;;;;;;5061667;28;20546;-58
2022/01/13 01:17:21;;;;;;;13.70;9.77;;;;;;;;;;5065698;28;20202;-59
2022/01/13 01:19:50;;;;;;;15.03;9.60;;;;;;;;;;5062212;28;20448;-58
2022/01/13 01:22:34;;;;;;;15.33;9.20;;;5.60;1.00;;;;;;5063619;28;20450;-57
2022/01/13 01:27:31;;;;;;;16.37;10.67;;;5.60;1.00;;;;;;5061655;28;20497;-58
2022/01/13 01:30:03;;;;;;;14.63;10.60;;;5.70;1.00;;;;;;5044885;28;20182;-59
2022/01/13 01:32:30;;;;;;;13.53;10.20;;;;;;;;;;5063264;28;20952;-57
2022/01/13 01:34:59;;;;;;;15.40;9.30;;;5.70;1.00;;;;;;5076003;28;20443;-59
2022/01/13 01:37:27;;;;;;;12.70;9.23;;;5.80;1.00;;;;;;5064686;28;20450;-58
2022/01/13 01:39:54;;;;;;;14.57;9.13;;;5.80;1.00;;;;;;5069364;28;20483;-58
2022/01/13 01:42:22;;;;;;;14.30;9.97;;;5.80;1.00;;;;;;5069108;28;20450;-59
2022/01/13 01:44:52;;;;;;;20.50;10.30;;;5.70;1.00;;;;;;5073056;28;20446;-58
2022/01/13 01:47:19;;;;;;;18.27;10.03;;;5.70;1.00;;;;;;5070172;28;21120;-58
2022/01/13 01:49:48;;;;;;;15.23;9.57;;;5.40;1.00;;;;;;5067405;28;20484;-59
2022/01/13 01:52:16;;;;;;;16.13;9.60;;;5.30;1.00;;;;;;5062910;28;20460;-59
2022/01/13 01:54:42;;;;;;;16.13;9.63;;;;;;;;;;5062150;28;20912;-58
2022/01/13 01:57:08;;;;;;;11.63;9.67;;;5.00;1.00;;;;;;5070031;28;20938;-58
2022/01/13 01:59:37;;;;;;;14.40;10.70;;;5.00;1.00;;;;;;5071624;28;20969;-57
2022/01/13 02:02:04;;;;;;;12.83;9.53;;;5.00;1.00;;;;;;5054732;28;21005;-57
2022/01/13 02:04:30;;;;;;;13.07;9.60;;;5.00;1.00;;;;;;5066600;28;20464;-58
2022/01/13 02:06:59;;;;;;;14.30;10.23;;;4.80;1.00;;;;;;5070446;28;20507;-58
2022/01/13 02:09:25;;;;;;;17.57;9.60;;;4.70;1.00;;;;;;5071759;28;20565;-58
2022/01/13 02:11:54;;;;;;;15.37;10.57;;;4.70;1.00;;;;;;5069815;28;20479;-57
2022/01/13 02:16:52;;;;;;;15.93;10.10;;;4.80;1.00;;;;;;5068607;28;20454;-59
2022/01/13 02:19:19;;;;;;;15.37;8.77;;;4.70;1.00;;;;;;5065124;28;20479;-58
2022/01/13 02:21:44;;;;;;;14.00;8.43;;;4.60;1.00;;;;;;5070351;28;20442;-58
2022/01/13 02:24:10;;;;;;;9.70;8.10;;;4.70;1.00;;;;;;5052641;28;20712;-58
2022/01/13 02:26:36;;;;;;;12.70;9.40;;;4.60;1.00;;;;;;5069904;28;20244;-59
2022/01/13 02:29:02;;;;;;;13.00;9.20;;;4.70;1.00;;;;;;5066243;28;20207;-59
2022/01/13 02:31:28;;;;;;;10.43;9.30;;;4.70;1.00;;;;;;5069485;28;20450;-58
2022/01/13 02:33:54;;;;;;;11.30;8.67;;;4.70;1.00;;;;;;5072413;28;20500;-58
2022/01/13 02:36:22;;;;;;;14.13;8.93;;;4.70;1.00;;;;;;5055567;28;20476;-59
2022/01/13 02:38:54;;;;;;;13.83;9.20;;;4.70;1.00;;;;;;5060633;28;20492;-58
2022/01/13 02:41:22;;;;;;;12.50;8.60;;;4.70;1.00;;;;;;5068844;28;20455;-58
2022/01/13 02:43:49;;;;;;;15.53;7.73;;;4.60;1.00;;;;;;5069171;28;20728;-59
2022/01/13 02:46:30;;;;;;;13.77;8.40;;;4.60;1.00;;;;;;5069874;28;20451;-58
2022/01/13 02:48:57;;;;;;;8.87;7.00;;;4.60;1.00;;;;;;5068692;28;20450;-58
2022/01/13 02:51:22;;;;;;;11.63;8.93;;;4.60;1.00;;;;;;5072884;28;20783;-58
2022/01/13 02:53:48;;;;;;;10.40;8.00;;;4.60;1.00;;;;;;5071655;28;20491;-58
2022/01/13 02:56:13;;;;;;;10.90;8.13;;;4.60;1.00;;;;;;5070893;28;20275;-57
2022/01/13 02:58:39;;;;;;;15.13;8.50;;;4.60;1.00;;;;;;5070372;28;20207;-58
2022/01/13 03:01:05;;;;;;;10.70;8.17;;;4.50;1.00;;;;;;5066940;28;21114;-57
2022/01/13 03:03:34;;;;;;;12.30;8.10;;;4.50;1.00;;;;;;5060901;28;20193;-57
2022/01/13 03:06:09;;;;;;;12.40;8.10;;;4.50;1.00;;;;;;5062606;28;20482;-58
2022/01/13 03:08:35;;;;;;;12.80;9.30;;;4.60;1.00;;;;;;5062226;28;20480;-58
2022/01/13 03:11:01;;;;;;;10.53;8.47;;;4.70;1.00;;;;;;5062112;28;20447;-57
2022/01/13 03:13:29;;;;;;;15.13;9.50;;;;;;;;;;5061935;28;20456;-57
2022/01/13 03:15:55;;;;;;;11.87;8.83;;;4.60;1.00;;;;;;5063022;28;20446;-57
2022/01/13 03:18:20;;;;;;;12.37;9.20;;;4.60;1.00;;;;;;5060545;28;20447;-59
2022/01/13 03:20:46;;;;;;;13.30;8.00;;;4.70;1.00;;;;;;5063892;28;20633;-58
2022/01/13 03:23:16;;;;;;;12.43;8.87;;;4.80;1.00;;;;;;5061390;28;20647;-58
2022/01/13 03:25:44;;;;;;;13.57;8.00;;;4.90;1.00;;;;;;5069736;28;20586;-57
2022/01/13 03:28:15;;;;;;;13.30;8.10;;;4.80;1.00;;;;;;5064458;28;20429;-58
2022/01/13 03:30:41;;;;;;;12.60;8.37;;;4.80;1.00;;;;;;5065052;28;20560;-57
2022/01/13 03:33:08;;;;;;;11.30;8.40;;;4.90;1.00;;;;;;5064711;28;20532;-57
2022/01/13 03:35:34;;;;;;;10.83;8.13;;;4.90;1.00;;;;;;5067402;28;20888;-58
2022/01/13 03:38:00;;;;;;;13.60;7.93;;;4.90;1.00;;;;;;5063861;28;21030;-58
2022/01/13 03:40:27;;;;;;;11.23;9.17;;;4.80;1.00;;;;;;5065768;28;20497;-59
2022/01/13 03:42:53;;;;;;;15.73;8.40;;;4.90;1.00;;;;;;5064800;28;20343;-58
2022/01/13 03:45:20;;;;;;;14.77;8.93;;;4.90;1.00;;;;;;5065118;28;20583;-59
2022/01/13 03:47:46;;;;;;;10.80;8.83;;;;;;;;;;5076737;28;20206;-58
2022/01/13 03:50:13;;;;;;;14.00;8.90;;;;;;;;;;5063043;28;20871;-58
2022/01/13 03:53:39;;;;;;;14.80;9.40;;;4.90;1.00;;;;;;5078819;28;20449;-57
2022/01/13 03:56:42;;;;;;;11.63;7.17;;;5.00;1.00;;;;;;5064260;28;20453;-58
2022/01/13 03:59:36;;;;;;;11.53;8.17;;;4.90;1.00;;;;;;5064714;28;20804;-59
2022/01/13 04:02:03;;;;;;;14.80;8.70;;;;;;;;;;5070100;28;20446;-59
2022/01/13 04:04:39;;;;;;;11.27;8.23;;;5.00;1.00;;;;;;5071610;28;20861;-58
2022/01/13 04:07:15;;;;;;;9.00;7.03;;;5.00;1.00;;;;;;5056300;28;20814;-59
2022/01/13 04:09:41;;;;;;;10.60;6.50;;;5.00;1.00;;;;;;5077774;28;20954;-58
2022/01/13 04:12:10;;;;;;;11.70;7.73;;;5.20;1.00;;;;;;5072687;28;20537;-56
2022/01/13 04:14:57;;;;;;;11.60;8.20;;;5.20;1.00;;;;;;5058344;28;20188;-58
2022/01/13 04:17:24;;;;;;;10.53;7.90;;;5.20;1.00;;;;;;5066388;28;20448;-57
2022/01/13 04:19:50;;;;;;;6.90;6.20;;;5.20;1.00;;;;;;5075955;28;21029;-57
2022/01/13 04:22:16;;;;;;;8.40;6.93;;;5.30;1.00;;;;;;5063755;28;20536;-58
2022/01/13 04:24:48;;;;;;;11.30;7.67;;;5.30;1.00;;;;;;5044615;28;20435;-58
2022/01/13 04:27:22;;;;;;;8.80;7.50;;;5.30;1.00;;;;;;5043959;28;20443;-58
2022/01/13 04:30:00;;;;;;;9.67;6.53;;;5.40;1.00;;;;;;5044222;28;20528;-57
2022/01/13 04:32:25;;;;;;;13.23;7.30;;;5.40;1.00;;;;;;5042601;28;20582;-58
2022/01/13 04:34:51;;;;;;;8.37;7.23;;;;;;;;;;5045403;28;20452;-58
2022/01/13 04:37:17;;;;;;;8.40;5.80;;;5.30;1.00;;;;;;5044048;28;20241;-57
2022/01/13 04:39:42;;;;;;;9.07;6.80;;;5.30;1.00;;;;;;5046502;28;20688;-59
2022/01/13 04:42:10;;;;;;;11.70;7.57;;;5.20;1.00;;;;;;5046894;28;20194;-56
2022/01/13 04:44:36;;;;;;;7.50;6.17;;;5.20;1.00;;;;;;5043659;28;20272;-57
2022/01/13 04:47:07;;;;;;;7.97;6.17;;;5.30;1.00;;;;;;5045934;28;20592;-59
2022/01/13 04:49:33;;;;;;;9.30;7.20;;;5.20;1.00;;;;;;5043285;28;20207;-57
2022/01/13 04:51:59;;;;;;;9.80;6.27;;;5.20;1.00;;;;;;5043669;28;20454;-58
2022/01/13 04:54:24;;;;;;;7.73;6.70;;;5.20;1.00;;;;;;5044022;28;20185;-58
2022/01/13 04:59:16;;;;;;;8.87;7.07;;;5.20;1.00;;;;;;5044652;28;20219;-59
2022/01/13 05:01:41;;;;;;;8.63;6.03;;;5.20;1.00;;;;;;5047481;28;20448;-58
2022/01/13 05:04:08;;;;;;;9.33;5.90;;;5.20;1.00;;;;;;5046121;28;20534;-58
2022/01/13 05:06:34;;;;;;;7.57;6.43;;;5.20;1.00;;;;;;5051562;28;20638;-57
2022/01/13 05:09:00;;;;;;;11.03;6.80;;;5.20;1.00;;;;;;5051660;28;20521;-55
2022/01/13 05:11:26;;;;;;;9.60;6.60;;;5.20;1.00;;;;;;5051381;28;20614;-57
2022/01/13 05:13:51;;;;;;;9.17;6.67;;;5.20;1.00;;;;;;5051113;28;20465;-59
2022/01/13 05:16:30;;;;;;;8.53;6.20;;;5.20;1.00;;;;;;5055673;28;20448;-57
2022/01/13 05:21:46;;;;;;;9.03;6.33;;;;;;;;;;5051585;28;20443;-58
2022/01/13 05:24:12;;;;;;;8.03;6.90;;;5.40;1.00;;;;;;5085277;28;20558;-57
2022/01/13 05:26:38;;;;;;;9.17;6.33;;;5.50;1.00;;;;;;5053610;28;20955;-55
2022/01/13 05:29:04;;;;;;;8.33;6.30;;;5.50;1.00;;;;;;5062831;28;20484;-57
2022/01/13 05:31:29;;;;;;;10.83;6.63;;;5.50;1.00;;;;;;5051563;28;20989;-57
2022/01/13 05:33:55;;;;;;;9.70;6.17;;;;;;;;;;5051103;28;20469;-57
2022/01/13 05:36:21;;;;;;;10.53;6.50;;;5.40;1.00;;;;;;5051110;28;20241;-57
2022/01/13 05:38:47;;;;;;;10.50;6.43;;;;;;;;;;5050106;28;20553;-60
2022/01/13 05:41:13;;;;;;;12.03;6.60;;;5.50;1.00;;;;;;5050023;28;20303;-59
2022/01/13 05:43:39;;;;;;;7.27;5.83;;;5.50;1.00;;;;;;5052613;28;20754;-59
2022/01/13 05:46:04;;;;;;;8.43;6.10;;;5.50;1.00;;;;;;5050410;28;20438;-58
2022/01/13 05:48:31;;;;;;;8.43;5.83;;;;;;;;;;5052705;28;20230;-58
2022/01/13 05:50:58;;;;;;;15.53;6.27;;;5.30;1.00;;;;;;5050368;28;20544;-59
2022/01/13 05:53:23;;;;;;;8.70;5.80;;;5.40;1.00;;;;;;5051205;28;20449;-59
2022/01/13 05:55:49;;;;;;;7.70;6.00;;;5.40;1.00;;;;;;5050604;28;20442;-57
2022/01/13 05:58:15;;;;;;;13.70;6.43;;;;;;;;;;5051815;28;20188;-58
2022/01/13 06:00:41;;;;;;;8.07;6.10;;;5.40;1.00;;;;;;5084703;28;20232;-58
2022/01/13 06:03:06;;;;;;;7.67;6.07;;;5.50;1.00;;;;;;5092780;28;20412;-60
2022/01/13 06:05:32;;;;;;;7.37;6.00;;;5.40;1.00;;;;;;5051060;28;20579;-59
2022/01/13 06:07:58;;;;;;;7.63;6.80;;;5.50;1.00;;;;;;5049840;28;20176;-58
2022/01/13 06:10:24;;;;;;;7.40;6.30;;;5.40;1.00;;;;;;5051414;28;20193;-58
2022/01/13 06:12:51;;;;;;;8.60;7.20;;;5.50;1.00;;;;;;5050974;28;20188;-58
2022/01/13 06:15:19;;;;;;;9.60;6.77;;;5.50;1.00;;;;;;5049565;28;20469;-59
2022/01/13 06:17:47;;;;;;;9.63;7.23;;;5.50;1.00;;;;;;5051569;28;20451;-58
2022/01/13 06:20:14;;;;;;;10.27;7.30;;;5.40;1.00;;;;;;5048340;28;20469;-59
2022/01/13 06:22:41;;;;;;;19.20;8.17;;;5.40;1.00;;;;;;5051430;28;20560;-59
2022/01/13 06:25:08;;;;;;;7.70;6.70;;;5.50;1.00;;;;;;5068384;28;20471;-59
2022/01/13 06:27:34;;;;;;;12.10;6.10;;;5.40;1.00;;;;;;5070287;28;20522;-59
2022/01/13 06:30:00;;;;;;;9.50;6.50;;;;;;;;;;5066234;28;20549;-58
2022/01/13 06:32:26;;;;;;;12.83;7.10;;;5.50;1.00;;;;;;5071430;28;20219;-60
2022/01/13 06:34:58;;;;;;;9.63;6.90;;;5.40;1.00;;;;;;5073873;28;20446;-58
2022/01/13 06:37:24;;;;;;;9.87;7.20;;;5.60;1.00;;;;;;5053153;28;20558;-58
2022/01/13 06:39:50;;;;;;;8.63;6.10;;;5.60;1.00;;;;;;5071589;28;20473;-58
2022/01/13 06:42:17;;;;;;;8.93;6.60;;;;;;;;;;5070089;28;20262;-58
2022/01/13 06:44:43;;;;;;;11.77;8.13;;;5.70;1.00;;;;;;5059757;28;20180;-57
2022/01/13 06:47:09;;;;;;;8.33;5.77;;;;;;;;;;5073263;28;20444;-57
2022/01/13 06:49:35;;;;;;;14.37;7.67;;;;;;;;;;5052634;28;20545;-59
2022/01/13 06:52:02;;;;;;;15.73;6.93;;;5.70;1.00;;;;;;5074543;28;20446;-59
2022/01/13 06:54:28;;;;;;;12.17;8.07;;;5.80;1.00;;;;;;5071245;28;20452;-58
2022/01/13 06:56:53;;;;;;;11.40;7.23;;;5.90;1.00;;;;;;5074394;28;20779;-58
2022/01/13 06:59:20;;;;;;;11.83;7.97;;;5.90;1.00;;;;;;5074826;28;20216;-58
2022/01/13 07:01:47;;;;;;;12.60;7.13;;;5.90;1.00;;;;;;5075115;28;20613;-58
2022/01/13 07:04:13;;;;;;;14.77;7.03;;;5.90;1.00;;;;;;5095224;28;20475;-59
2022/01/13 07:06:40;;;;;;;9.93;6.53;;;5.90;1.00;;;;;;5053735;28;20435;-60
2022/01/13 07:09:09;;;;;;;12.30;7.50;;;5.90;1.00;;;;;;5072782;28;20440;-60
2022/01/13 07:11:35;;;;;;;12.10;8.00;;;5.90;1.00;;;;;;5073706;28;20929;-59
2022/01/13 07:14:02;;;;;;;11.90;7.23;;;5.80;1.00;;;;;;5073818;28;20447;-59
2022/01/13 07:16:28;;;;;;;11.17;7.40;;;5.80;1.00;;;;;;5074240;28;20471;-59
2022/01/13 07:18:54;;;;;;;9.43;6.40;;;5.90;1.00;;;;;;5072166;28;20439;-60
2022/01/13 07:21:22;;;;;;;15.20;7.43;;;;;;;;;;5073312;28;20195;-59
2022/01/13 07:23:48;;;;;;;13.40;6.97;;;6.00;1.00;;;;;;5075291;28;20493;-60
2022/01/13 07:26:14;;;;;;;14.30;8.13;;;;;;;;;;5073689;28;20890;-60
2022/01/13 07:28:40;;;;;;;12.57;6.97;;;6.10;1.00;;;;;;5074496;28;20177;-60
2022/01/13 07:31:06;;;;;;;13.00;7.53;;;;;;;;;;5061236;28;20446;-60
2022/01/13 07:33:31;;;;;;;12.73;7.23;;;6.20;1.00;;;;;;5074764;28;20409;-60
2022/01/13 07:35:58;;;;;;;10.93;6.90;;;;;;;;;;5072668;28;20440;-60
2022/01/13 07:38:23;;;;;;;10.17;6.93;;;6.20;1.00;;;;;;5076704;28;20259;-60
2022/01/13 07:40:49;;;;;;;11.23;7.03;;;6.50;1.00;;;;;;5072531;28;20507;-59
2022/01/13 07:43:23;;;;;;;11.43;7.57;;;6.30;1.00;;;;;;5072300;28;20185;-59
2022/01/13 07:45:49;;;;;;;13.70;6.83;;;6.30;1.00;;;;;;5074986;28;20960;-59
2022/01/13 07:48:15;;;;;;;18.03;7.40;;;6.20;1.00;;;;;;5071788;28;20964;-59
2022/01/13 07:50:41;;;;;;;15.17;7.93;;;6.10;1.00;;;;;;5072397;28;20439;-59
2022/01/13 07:53:06;;;;;;;11.20;7.10;;;6.10;1.00;;;;;;5072374;28;20459;-57
2022/01/13 07:55:32;;;;;;;12.43;7.50;;;;;;;;;;5055295;28;20219;-59
2022/01/13 07:57:58;;;;;;;11.13;7.50;;;;;;;;;;5072784;28;20591;-58
2022/01/13 08:00:24;;;;;;;12.27;6.67;;;6.10;1.00;;;;;;5073135;28;20459;-58
2022/01/13 08:02:50;;;;;;;16.07;8.30;;;6.10;1.00;;;;;;5078779;28;20800;-59
2022/01/13 08:05:15;;;;;;;10.57;6.77;;;;;;;;;;5071997;28;20186;-58
2022/01/13 08:07:41;;;;;;;14.23;7.70;;;6.20;1.00;;;;;;5071947;28;20206;-59
2022/01/13 08:10:07;;;;;;;12.50;7.23;;;;;;;;;;5071109;28;20443;-59
2022/01/13 08:12:33;;;;;;;12.37;7.77;;;6.20;1.00;;;;;;5071984;28;20192;-59
2022/01/13 08:14:58;;;;;;;11.83;7.33;;;6.10;1.00;;;;;;5071674;28;20920;-59
2022/01/13 08:20:09;;;;;;;8.20;6.43;;;6.30;1.00;;;;;;5086828;28;20215;-59
2022/01/13 08:22:35;;;;;;;12.60;6.73;;;6.40;1.00;;;;;;5091835;28;20449;-58
2022/01/13 08:25:01;;;;;;;10.07;6.20;;;6.30;1.00;;;;;;5091996;28;20467;-58
2022/01/13 08:27:26;;;;;;;9.80;6.67;;;6.30;1.00;;;;;;5091781;28;20184;-60
2022/01/13 08:29:52;;;;;;;10.70;6.50;;;6.30;1.00;;;;;;5091735;28;20430;-58
2022/01/13 08:32:18;;;;;;;12.83;6.63;;;6.40;1.00;;;;;;5091891;28;20175;-57
2022/01/13 08:34:44;;;;;;;10.63;5.97;;;;;;;;;;5091888;28;20187;-59
2022/01/13 08:37:10;;;;;;;10.13;6.43;;;;;;;;;;5091921;28;20541;-58
2022/01/13 08:39:43;;;;;;;10.33;6.50;;;;;;;;;;5091747;28;20553;-61
2022/01/13 08:42:09;;;;;;;11.37;5.77;;;6.60;1.00;;;;;;5091952;28;20433;-59
2022/01/13 08:44:35;;;;;;;9.80;5.33;;;;;;;;;;5075741;28;20451;-59
2022/01/13 08:47:01;;;;;;;9.87;6.07;;;6.70;1.00;;;;;;5053359;28;20451;-59
2022/01/13 08:49:28;;;;;;;8.00;5.20;;;6.80;1.00;;;;;;5071310;28;20845;-59
2022/01/13 08:51:54;;;;;;;12.40;6.17;;;6.80;1.00;;;;;;5071443;28;20181;-58
2022/01/13 08:54:21;;;;;;;13.07;6.20;;;6.70;1.00;;;;;;5071370;28;20864;-57
2022/01/13 08:56:47;;;;;;;12.77;5.97;;;6.70;1.00;;;;;;5071036;28;20447;-59
2022/01/13 08:59:13;;;;;;;7.90;5.03;;;6.70;1.00;;;;;;5070962;28;20482;-59
2022/01/13 09:01:38;;;;;;;11.83;6.27;;;6.80;1.00;;;;;;5071227;28;21067;-58
2022/01/13 09:04:04;;;;;;;7.93;5.80;;;7.00;1.00;;;;;;5070912;28;20176;-58
2022/01/13 09:06:30;;;;;;;11.47;6.17;;;7.10;1.00;;;;;;5070981;28;20701;-58
2022/01/13 09:08:55;;;;;;;8.77;5.50;;;7.20;1.00;;;;;;5069886;28;20178;-58
2022/01/13 09:11:21;;;;;;;8.83;5.43;;;7.20;1.00;;;;;;5070797;28;20272;-58
2022/01/13 09:13:47;;;;;;;10.77;6.80;;;7.20;1.00;;;;;;5070689;28;20675;-59
2022/01/13 09:16:17;;;;;;;8.80;5.53;;;7.30;1.00;;;;;;5070842;28;20555;-59
2022/01/13 09:21:13;;;;;;;9.47;5.10;;;7.10;1.00;;;;;;5078960;28;20842;-57
2022/01/13 09:23:40;;;;;;;12.37;6.17;;;6.00;1.00;;;;;;5054152;28;20470;-59
2022/01/13 09:26:05;;;;;;;11.03;5.80;;;7.20;1.00;;;;;;5070411;28;20411;-59
2022/01/13 09:28:32;;;;;;;8.90;5.50;;;7.30;1.00;;;;;;5070447;28;20447;-58
2022/01/13 09:30:58;;;;;;;9.67;5.43;;;7.30;1.00;;;;;;5070472;28;20446;-59
2022/01/13 09:33:25;;;;;;;5.93;4.43;;;;;;;;;;5070862;28;20444;-59
2022/01/13 09:35:51;;;;;;;7.47;4.87;;;7.30;1.00;;;;;;5070610;28;20273;-59
2022/01/13 09:38:16;;;;;;;10.40;4.73;;;7.40;1.00;;;;;;5069598;28;20577;-59
2022/01/13 09:40:45;;;;;;;9.87;5.83;;;7.40;1.00;;;;;;5070286;28;20491;-59
2022/01/13 09:43:11;;;;;;;11.40;5.90;;;;;;;;;;5070467;28;20186;-59
2022/01/13 09:45:37;;;;;;;6.90;5.17;;;7.60;1.00;;;;;;5071733;28;20450;-59
2022/01/13 09:48:03;;;;;;;9.03;4.77;;;7.60;1.00;;;;;;5090337;28;20763;-59
2022/01/13 09:50:29;;;;;;;9.37;4.87;;;;;;;;;;5081081;28;20658;-59
2022/01/13 09:52:54;;;;;;;11.10;5.20;;;7.70;1.00;;;;;;5073667;28;20197;-59
2022/01/13 09:55:20;;;;;;;7.03;4.70;;;;;;;;;;5090360;28;20436;-59
2022/01/13 09:57:51;;;;;;;8.20;6.00;;;8.10;1.00;;;;;;5090364;28;20277;-60
2022/01/13 10:00:20;;;;;;;6.20;4.67;;;8.00;1.00;;;;;;5090044;28;20955;-60
2022/01/13 10:02:45;;;;;;;6.60;4.60;;;7.90;1.00;;;;;;5078851;28;20490;-59
2022/01/13 10:05:11;;;;;;;8.07;4.33;;;8.20;1.00;;;;;;5070172;28;20444;-60
2022/01/13 10:07:42;;;;;;;9.30;4.87;;;8.10;1.00;;;;;;5069761;28;20616;-59
2022/01/13 10:10:13;;;;;;;5.77;4.57;;;8.30;1.00;;;;;;5084355;28;21145;-59
2022/01/13 10:12:41;;;;;;;6.27;4.63;;;8.30;1.00;;;;;;5089110;28;20577;-59
2022/01/13 10:18:09;;;;;;;6.20;4.07;;;8.30;1.00;;;;;;5089104;28;20745;-59
2022/01/13 10:20:35;;;;;;;10.03;4.87;;;;;;;;;;5069124;28;20472;-59
2022/01/13 10:23:08;;;;;;;10.13;5.40;;;8.00;1.00;;;;;;5070169;28;20966;-60
2022/01/13 10:25:36;;;;;;;8.50;4.73;;;8.00;1.00;;;;;;5069604;28;20497;-60
2022/01/13 10:28:20;;;;;;;8.30;4.60;;;7.90;1.00;;;;;;5069927;28;20467;-59
2022/01/13 10:30:50;;;;;;;11.33;4.80;;;8.10;1.00;;;;;;5069900;28;20448;-59
2022/01/13 10:33:24;;;;;;;12.20;5.00;;;8.30;1.00;;;;;;5069487;28;20443;-59
2022/01/13 10:35:52;;;;;;;7.67;4.80;;;8.40;1.00;;;;;;5069992;28;20451;-60
2022/01/13 10:38:19;;;;;;;5.30;3.97;;;8.50;1.00;;;;;;5079411;28;20452;-60
2022/01/13 10:40:50;;;;;;;8.03;5.10;;;8.50;1.00;;;;;;5089911;28;20502;-59
2022/01/13 10:43:22;;;;;;;10.57;4.70;;;8.60;1.00;;;;;;5089487;28;20527;-59
2022/01/13 10:45:56;;;;;;;5.23;4.10;;;8.60;1.00;;;;;;5089462;28;20432;-59
2022/01/13 10:48:25;;;;;;;7.10;4.50;;;8.80;1.00;;;;;;5083626;28;20451;-59
2022/01/13 10:50:59;;;;;;;8.90;4.80;;;8.90;1.00;;;;;;5069621;28;20521;-59
2022/01/13 10:53:28;;;;;;;7.00;4.70;;;8.70;1.00;;;;;;5069265;28;20439;-59
2022/01/13 10:55:59;;;;;;;9.87;6.23;;;8.70;1.00;;;;;;5074617;28;20868;-59
2022/01/13 10:58:31;;;;;;;7.70;5.00;;;8.70;1.00;;;;;;5071389;28;20439;-59
2022/01/13 11:00:58;;;;;;;6.40;4.60;;;8.70;1.00;;;;;;5089367;28;21001;-59
2022/01/13 11:03:26;;;;;;;4.93;4.00;;;8.60;1.00;;;;;;5089263;28;20431;-59
2022/01/13 11:05:57;;;;;;;8.13;5.03;;;8.70;1.00;;;;;;5059323;28;20447;-59
2022/01/13 11:08:40;;;;;;;6.20;4.00;;;8.70;1.00;;;;;;5069019;28;20514;-60
2022/01/13 11:11:06;;;;;;;7.23;4.37;;;8.80;1.00;;;;;;5069315;28;20409;-59
2022/01/13 11:13:39;;;;;;;10.83;5.10;;;8.80;1.00;;;;;;5070533;28;20440;-59
2022/01/13 11:16:04;;;;;;;6.13;4.40;;;8.90;1.00;;;;;;5089637;28;20429;-59
2022/01/13 11:18:33;;;;;;;7.23;4.87;;;8.80;1.00;;;;;;5085455;28;20452;-59
2022/01/13 11:21:02;;;;;;;7.67;4.13;;;8.90;1.00;;;;;;5068653;28;20376;-59
2022/01/13 11:23:28;;;;;;;7.40;5.47;;;;;;;;;;5069023;28;20447;-59
2022/01/13 11:25:56;;;;;;;6.13;4.70;;;8.80;1.00;;;;;;5068999;28;21011;-59
2022/01/13 11:28:22;;;;;;;7.47;4.90;;;8.80;1.00;;;;;;5070931;28;20464;-58
2022/01/13 11:30:50;;;;;;;5.37;3.80;;;8.70;1.00;;;;;;5089014;28;20426;-59
2022/01/13 11:33:19;;;;;;;6.27;4.57;;;8.70;1.00;;;;;;5089375;28;20432;-59
2022/01/13 11:35:53;;;;;;;5.00;4.47;;;8.70;1.00;;;;;;5089383;28;20434;-59
2022/01/13 11:38:19;;;;;;;6.90;5.17;;;8.80;1.00;;;;;;5089099;28;20444;-59
2022/01/13 11:40:47;;;;;;;8.73;3.83;;;8.80;1.00;;;;;;5088736;28;20517;-59
2022/01/13 11:43:39;;;;;;;7.30;4.40;;;8.80;1.00;;;;;;5089600;28;20925;-59
2022/01/13 11:46:19;;;;;;;6.90;5.20;;;8.70;1.00;;;;;;5065215;28;20447;-59
2022/01/13 11:49:06;;;;;;;6.23;4.23;;;8.60;1.00;;;;;;5072686;28;20432;-58
2022/01/13 11:51:58;;;;;;;7.30;4.60;;;8.60;1.00;;;;;;5072698;28;20480;-60
2022/01/13 11:54:26;;;;;;;6.27;4.53;;;8.70;1.00;;;;;;5072716;28;20422;-59
2022/01/13 11:57:12;;;;;;;7.70;5.10;;;8.70;1.00;;;;;;5072289;28;20770;-59
2022/01/13 11:59:39;;;;;;;6.07;4.53;;;8.70;1.00;;;;;;5072365;28;20470;-58
2022/01/13 12:02:25;;;;;;;8.70;4.70;;;8.70;1.00;;;;;;5071859;28;20920;-59
2022/01/13 12:05:01;;;;;;;5.80;4.80;;;8.70;1.00;;;;;;5072045;28;20944;-59
2022/01/13 12:07:38;;;;;;;5.53;3.90;;;8.70;1.00;;;;;;5072202;28;20443;-59
2022/01/13 12:10:05;;;;;;;7.80;4.73;;;8.80;1.00;;;;;;5071904;28;20451;-59
2022/01/13 12:12:33;;;;;;;8.40;4.97;;;8.70;1.00;;;;;;5072021;28;20923;-59
2022/01/13 12:15:17;;;;;;;8.60;4.33;;;8.80;1.00;;;;;;5071523;28;20576;-59
2022/01/13 12:17:44;;;;;;;8.00;4.47;;;8.80;1.00;;;;;;5071518;28;20431;-59
2022/01/13 12:20:27;;;;;;;7.13;4.73;;;8.80;1.00;;;;;;5092294;28;20464;-60
2022/01/13 12:23:04;;;;;;;5.83;4.70;;;8.90;1.00;;;;;;5091816;28;20492;-59
2022/01/13 12:25:32;;;;;;;6.57;4.83;;;9.00;1.00;;;;;;5091144;28;20479;-59
2022/01/13 12:27:59;;;;;;;4.93;3.73;;;8.90;1.00;;;;;;5091670;28;20432;-59
2022/01/13 12:30:30;;;;;;;6.80;4.70;;;8.80;1.00;;;;;;5091820;28;20448;-59
2022/01/13 12:33:01;;;;;;;6.63;4.10;;;8.70;1.00;;;;;;5091911;28;20452;-59
2022/01/13 12:35:41;;;;;;;7.13;4.13;;;8.70;1.00;;;;;;5073753;28;20486;-60
2022/01/13 12:38:17;;;;;;;7.83;4.17;;;8.80;1.00;;;;;;5091925;28;20438;-59
2022/01/13 12:41:02;;;;;;;8.33;5.27;;;8.90;1.00;;;;;;5091744;28;20532;-59
2022/01/13 12:46:19;;;;;;;7.53;3.87;;;8.80;1.00;;;;;;5071228;28;20426;-59
2022/01/13 12:48:49;;;;;;;6.20;4.00;;;8.90;1.00;;;;;;5053300;28;20487;-60
2022/01/13 12:51:17;;;;;;;8.57;4.60;;;8.90;1.00;;;;;;5071494;28;20437;-59
2022/01/13 12:53:44;;;;;;;4.97;4.20;;;8.90;1.00;;;;;;5071443;28;20431;-59
2022/01/13 12:56:18;;;;;;;6.53;4.83;;;8.90;1.00;;;;;;5071126;28;20429;-59
2022/01/13 12:58:46;;;;;;;7.20;4.87;;;9.00;1.00;;;;;;5071248;28;20525;-59
2022/01/13 13:01:27;;;;;;;6.07;4.30;;;9.00;1.00;;;;;;5071160;28;20421;-58
2022/01/13 13:04:01;;;;;;;10.50;5.40;;;8.80;1.00;;;;;;5070592;28;20451;-59
2022/01/13 13:06:27;;;;;;;6.10;4.23;;;8.80;1.00;;;;;;5070946;28;20934;-59
2022/01/13 13:08:53;;;;;;;6.63;3.63;;;8.90;1.00;;;;;;5070956;28;20980;-59
2022/01/13 13:11:18;;;;;;;10.47;4.47;;;9.00;1.00;;;;;;5070637;28;20462;-59
2022/01/13 13:13:50;;;;;;;11.50;4.77;;;9.00;1.00;;;;;;5070542;28;20579;-59
2022/01/13 13:16:16;;;;;;;6.87;3.90;;;8.90;1.00;;;;;;5070297;28;20169;-58
2022/01/13 13:18:43;;;;;;;9.23;4.67;;;8.80;1.00;;;;;;5070453;28;20482;-59
2022/01/13 13:21:10;;;;;;;7.33;3.90;;;8.70;1.00;;;;;;5070259;28;20277;-59
2022/01/13 13:23:39;;;;;;;5.77;3.50;;;8.70;1.00;;;;;;5069284;28;20460;-59
2022/01/13 13:26:18;;;;;;;6.37;4.30;;;8.70;1.00;;;;;;5070377;28;20474;-59
2022/01/13 13:28:48;;;;;;;6.70;4.53;;;8.80;1.00;;;;;;5070570;28;20536;-60
2022/01/13 13:31:16;;;;;;;5.87;4.23;;;8.80;1.00;;;;;;5070632;28;20425;-59
2022/01/13 13:33:45;;;;;;;7.33;4.33;;;8.80;1.00;;;;;;5070286;28;20491;-60
2022/01/13 13:36:26;;;;;;;6.00;3.90;;;8.80;1.00;;;;;;5070411;28;20432;-59
2022/01/13 13:38:55;;;;;;;4.90;4.27;;;8.80;1.00;;;;;;5070169;28;20432;-59
2022/01/13 13:41:24;;;;;;;9.83;4.70;;;8.70;1.00;;;;;;5070220;28;20956;-59
2022/01/13 13:43:51;;;;;;;7.37;3.30;;;8.70;1.00;;;;;;5069874;28;20429;-59